Observation data for Northwest San Angelo on 02/11/2018      Previous  Date  Next       Current Mesonet Observations  Soil Data  Daily Summary Page  Observations in Plain Language
KASU 110600Z 05009KT 01/M08 A2996 RMK A01 T00071080  RH  053%=      5-min Rain = 0
KASU 110605Z 05009G14KT 01/M08 A2997 RMK A01 T00081079  RH  053%=      5-min Rain = 0
KASU 110610Z 04008KT 01/M08 A2997 RMK A01 T00081079  RH  053%=      5-min Rain = 0
KASU 110615Z 04009G14KT 01/M08 A2997 RMK A01 T00081080  RH  053%=      5-min Rain = 0
KASU 110620Z 04011G16KT 01/M08 A2997 RMK A01 T00071080  RH  053%=      5-min Rain = 0
KASU 110625Z 05012G18KT 01/M08 A2997 RMK A01 T00061082  RH  053%=      5-min Rain = 0
KASU 110630Z 05012G17KT 01/M08 A2997 RMK A01 T00051082  RH  053%=      5-min Rain = 0
KASU 110635Z 05011G17KT 01/M08 A2997 RMK A01 T00051082  RH  053%=      5-min Rain = 0
KASU 110640Z 04011G17KT 00/M08 A2997 RMK A01 T00041083  RH  053%=      5-min Rain = 0
KASU 110645Z 05011G17KT 00/M09 A2997 RMK A01 T00021088  RH  052%=      5-min Rain = 0
KASU 110650Z 05012G17KT 00/09 A2997 RMK A01 T00000-90  RH  051%=      5-min Rain = 0
KASU 110655Z 05012KT 00/09 A2997 RMK A01 T00000-90  RH  051%=      5-min Rain = 0
KASU 110700Z 04009G14KT 00/09 A2998 RMK A01 T00000-89  RH  052%=      5-min Rain = 0
KASU 110705Z 05011G18KT M00/M09 A2998 RMK A01 T10011091  RH  051%=      5-min Rain = 0
KASU 110710Z 05012G17KT M00/M09 A2999 RMK A01 T10031093  RH  051%=      5-min Rain = 0
KASU 110715Z 04011G17KT M00/M09 A2999 RMK A01 T10041093  RH  051%=      5-min Rain = 0
KASU 110720Z 04009G18KT M00/M09 A30 RMK A01 T10041093  RH  052%=      5-min Rain = 0
KASU 110725Z 05011G17KT M01/M09 A30 RMK A01 T10051094  RH  052%=      5-min Rain = 0
KASU 110730Z 05011G17KT M01/M09 A2999 RMK A01 T10061094  RH  052%=      5-min Rain = 0
KASU 110735Z 05010G15KT M01/M09 A30 RMK A01 T10061094  RH  052%=      5-min Rain = 0
KASU 110740Z 04009KT M01/M09 A30 RMK A01 T10061094  RH  052%=      5-min Rain = 0
KASU 110745Z 04008G13KT M01/M09 A30 RMK A01 T10061094  RH  052%=      5-min Rain = 0
KASU 110750Z 05009G14KT M01/M10 A30 RMK A01 T10061095  RH  052%=      5-min Rain = 0
KASU 110755Z 05009KT M01/M10 A30 RMK A01 T10071095  RH  052%=      5-min Rain = 0
KASU 110800Z 03007G12KT M01/M10 A30 RMK A01 T10071096  RH  051%=      5-min Rain = 0
KASU 110805Z 03009G15KT M01/M10 A30 RMK A01 T10081100  RH  050%=      5-min Rain = 0
KASU 110810Z 03009G15KT M01/M10 A30 RMK A01 T10101101  RH  051%=      5-min Rain = 0
KASU 110815Z 04010G16KT M01/M10 A30 RMK A01 T10101101  RH  051%=      5-min Rain = 0
KASU 110820Z 04010KT M01/M10 A3001 RMK A01 T10111103  RH  050%=      5-min Rain = 0
KASU 110825Z 03009G14KT M01/M10 A3001 RMK A01 T10121104  RH  050%=      5-min Rain = 0
KASU 110830Z 04011G16KT M01/M11 A3001 RMK A01 T10131105  RH  050%=      5-min Rain = 0
KASU 110835Z 04009KT M01/M11 A3001 RMK A01 T10131105  RH  050%=      5-min Rain = 0
KASU 110840Z 03009G15KT M01/M11 A3002 RMK A01 T10131105  RH  050%=      5-min Rain = 0
KASU 110845Z 02007G12KT M01/M11 A3002 RMK A01 T10131106  RH  050%=      5-min Rain = 0
KASU 110850Z 03008G14KT M01/M11 A3002 RMK A01 T10141107  RH  050%=      5-min Rain = 0
KASU 110855Z 03008KT M02/M11 A3003 RMK A01 T10151107  RH  050%=      5-min Rain = 0
KASU 110900Z 03007G12KT M02/M11 A3003 RMK A01 T10161107  RH  050%=      5-min Rain = 0
KASU 110905Z 02008G15KT M02/M11 A3003 RMK A01 T10171108  RH  050%=      5-min Rain = 0
KASU 110910Z 03010G15KT M02/M11 A3004 RMK A01 T10181108  RH  051%=      5-min Rain = 0
KASU 110915Z 03008G13KT M02/M11 A3004 RMK A01 T10191108  RH  052%=      5-min Rain = 0
KASU 110920Z 02008G14KT M02/M11 A3004 RMK A01 T10211107  RH  052%=      5-min Rain = 0
KASU 110925Z 03008KT M02/M11 A3004 RMK A01 T10221111  RH  051%=      5-min Rain = 0
KASU 110930Z 02006G12KT M02/M11 A3004 RMK A01 T10221112  RH  051%=      5-min Rain = 0
KASU 110935Z 01010G15KT M02/M11 A3004 RMK A01 T10241110  RH  052%=      5-min Rain = 0
KASU 110940Z 02008G13KT M03/M11 A3004 RMK A01 T10261109  RH  054%=      5-min Rain = 0
KASU 110945Z 03008G14KT M03/M11 A3005 RMK A01 T10261111  RH  053%=      5-min Rain = 0
KASU 110950Z 03008G13KT M03/M11 A3005 RMK A01 T10271112  RH  053%=      5-min Rain = 0
KASU 110955Z 01007G12KT M03/M11 A3005 RMK A01 T10271113  RH  053%=      5-min Rain = 0
KASU 111000Z 01009KT M03/M11 A3005 RMK A01 T10291112  RH  054%=      5-min Rain = 0
KASU 111005Z 02007G13KT M03/M11 A3006 RMK A01 T10291110  RH  055%=      5-min Rain = 0
KASU 111010Z 02006G11KT M03/M11 A3005 RMK A01 T10291110  RH  054%=      5-min Rain = 0
KASU 111015Z 01008KT M03/M11 A3005 RMK A01 T10301111  RH  054%=      5-min Rain = 0
KASU 111020Z 01006G14KT M03/M11 A3007 RMK A01 T10321113  RH  054%=      5-min Rain = 0
KASU 111025Z 02005KT M03/M11 A3007 RMK A01 T10311113  RH  054%=      5-min Rain = 0
KASU 111030Z 02006G12KT M03/M11 A3006 RMK A01 T10311114  RH  054%=      5-min Rain = 0
KASU 111035Z 00007KT M03/M11 A3007 RMK A01 T10311114  RH  053%=      5-min Rain = 0
KASU 111040Z 35007KT M03/M11 A3007 RMK A01 T10311111  RH  055%=      5-min Rain = 0
KASU 111045Z 35009KT M03/M11 A3007 RMK A01 T10311110  RH  055%=      5-min Rain = 0
KASU 111050Z 35011KT M03/M11 A3007 RMK A01 T10331107  RH  057%=      5-min Rain = 0
KASU 111055Z 00009G14KT M03/M09 A3007 RMK A01 T10331094  RH  064%=      5-min Rain = 0
KASU 111100Z 35008KT M03/M09 A3008 RMK A01 T10321085  RH  068%=      5-min Rain = 0
KASU 111105Z 35008KT M03/M08 A3007 RMK A01 T10341083  RH  070%=      5-min Rain = 0
KASU 111110Z 35012KT M04/M09 A3008 RMK A01 T10371085  RH  070%=      5-min Rain = 0
KASU 111115Z 36010G15KT M04/M09 A3008 RMK A01 T10391087  RH  070%=      5-min Rain = 0
KASU 111120Z 00010G17KT M04/M09 A3007 RMK A01 T10391090  RH  069%=      5-min Rain = 0
KASU 111125Z 36008G14KT M04/M09 A3008 RMK A01 T10401089  RH  069%=      5-min Rain = 0
KASU 111130Z 36009KT M04/M09 A3008 RMK A01 T10401089  RH  070%=      5-min Rain = 0
KASU 111135Z 35008G13KT M04/M09 A3009 RMK A01 T10411092  RH  068%=      5-min Rain = 0
KASU 111140Z 35008KT M04/M09 A3009 RMK A01 T10411093  RH  068%=      5-min Rain = 0
KASU 111145Z 36009KT M04/M10 A301 RMK A01 T10411096  RH  067%=      5-min Rain = 0
KASU 111150Z 00006G11KT M04/M10 A301 RMK A01 T10411096  RH  067%=      5-min Rain = 0
KASU 111155Z 36008G13KT M04/M10 A301 RMK A01 T10411097  RH  066%=      5-min Rain = 0
KASU 111200Z 36008G13KT M04/M10 A301 RMK A01 T10411098  RH  065%=      5-min Rain = 0
KASU 111205Z 00009KT M04/M10 A301 RMK A01 T10411099  RH  065%=      5-min Rain = 0
KASU 111210Z 35008KT M04/M10 A3011 RMK A01 T10411098  RH  065%=      5-min Rain = 0
KASU 111215Z 35007KT M04/M10 A3011 RMK A01 T10411098  RH  065%=      5-min Rain = 0
KASU 111220Z 35008KT M04/M10 A3011 RMK A01 T10411098  RH  066%=      5-min Rain = 0
KASU 111225Z 36006KT M04/M10 A3012 RMK A01 T10411096  RH  066%=      5-min Rain = 0
KASU 111230Z 00007G12KT M04/M10 A3012 RMK A01 T10411097  RH  066%=      5-min Rain = 0
KASU 111235Z 36008G13KT M04/M10 A3013 RMK A01 T10411098  RH  065%=      5-min Rain = 0
KASU 111240Z 35008G13KT M04/M10 A3013 RMK A01 T10411098  RH  065%=      5-min Rain = 0
KASU 111245Z 35012G17KT M04/M10 A3013 RMK A01 T10421102  RH  064%=      5-min Rain = 0
KASU 111250Z 36011G17KT M04/M11 A3013 RMK A01 T10421105  RH  063%=      5-min Rain = 0
KASU 111255Z 36009KT M04/M10 A3014 RMK A01 T10431104  RH  063%=      5-min Rain = 0
KASU 111300Z 35010KT M04/M11 A3014 RMK A01 T10431106  RH  062%=      5-min Rain = 0
KASU 111305Z 35008KT M04/M10 A3015 RMK A01 T10431104  RH  063%=      5-min Rain = 0
KASU 111310Z 35008KT M04/M10 A3015 RMK A01 T10431102  RH  064%=      5-min Rain = 0
KASU 111315Z 35009KT M04/M10 A3015 RMK A01 T10421103  RH  064%=      5-min Rain = 0
KASU 111320Z 34009KT M04/M10 A3016 RMK A01 T10421101  RH  064%=      5-min Rain = 0
KASU 111325Z 34012KT M04/M10 A3017 RMK A01 T10431100  RH  066%=      5-min Rain = 0
KASU 111330Z 34011G17KT M04/M10 A3017 RMK A01 T10441097  RH  068%=      5-min Rain = 0
KASU 111335Z 34011KT M05/M10 A3018 RMK A01 T10451095  RH  069%=      5-min Rain = 0
KASU 111340Z 35010G15KT M05/M09 A3018 RMK A01 T10451093  RH  070%=      5-min Rain = 0
KASU 111345Z 35011G16KT M05/M09 A3018 RMK A01 T10451092  RH  071%=      5-min Rain = 0
KASU 111350Z 35010KT M05/M09 A3019 RMK A01 T10451091  RH  071%=      5-min Rain = 0
KASU 111355Z 35012KT M05/M09 A3019 RMK A01 T10461090  RH  072%=      5-min Rain = 0
KASU 111400Z 34011G18KT M05/M09 A3019 RMK A01 T10461088  RH  074%=      5-min Rain = 0
KASU 111405Z 35007KT M05/M09 A3019 RMK A01 T10451085  RH  075%=      5-min Rain = 0
KASU 111410Z 35010G15KT M05/M08 A3019 RMK A01 T10451084  RH  075%=      5-min Rain = 0
KASU 111415Z 35011KT M05/M09 A302 RMK A01 T10461086  RH  074%=      5-min Rain = 0
KASU 111420Z 35008KT M04/M09 A302 RMK A01 T10441086  RH  074%=      5-min Rain = 0
KASU 111425Z 35006KT M04/M09 A302 RMK A01 T10441086  RH  074%=      5-min Rain = 0
KASU 111430Z 35008KT M04/M09 A302 RMK A01 T10431086  RH  073%=      5-min Rain = 0
KASU 111435Z 35008KT M04/M09 A302 RMK A01 T10421087  RH  072%=      5-min Rain = 0
KASU 111440Z 35008KT M04/M09 A3021 RMK A01 T10401089  RH  070%=      5-min Rain = 0
KASU 111445Z 34009KT M04/M09 A3021 RMK A01 T10391088  RH  069%=      5-min Rain = 0
KASU 111450Z 34010KT M04/M09 A3021 RMK A01 T10391090  RH  068%=      5-min Rain = 0
KASU 111455Z 34011G16KT M04/M09 A3022 RMK A01 T10381090  RH  068%=      5-min Rain = 0
KASU 111500Z 34011G16KT M04/M09 A3022 RMK A01 T10361091  RH  067%=      5-min Rain = 0
KASU 111505Z 34011KT M04/M09 A3022 RMK A01 T10351092  RH  066%=      5-min Rain = 0
KASU 111510Z 35009KT M03/M09 A3023 RMK A01 T10341092  RH  065%=      5-min Rain = 0
KASU 111515Z 35009KT M03/M09 A3023 RMK A01 T10341093  RH  064%=      5-min Rain = 0
KASU 111520Z 35007KT M03/M10 A3023 RMK A01 T10341096  RH  063%=      5-min Rain = 0
KASU 111525Z 34008KT M03/M09 A3023 RMK A01 T10321093  RH  064%=      5-min Rain = 0
KASU 111530Z 34009KT M03/M10 A3024 RMK A01 T10321096  RH  062%=      5-min Rain = 0
KASU 111535Z 33009KT M03/M10 A3024 RMK A01 T10311095  RH  062%=      5-min Rain = 0
KASU 111540Z 34009KT M03/M10 A3024 RMK A01 T10291095  RH  061%=      5-min Rain = 0
KASU 111545Z 34010KT M03/M10 A3024 RMK A01 T10281097  RH  060%=      5-min Rain = 0
KASU 111550Z 34010KT M03/M10 A3024 RMK A01 T10271097  RH  059%=      5-min Rain = 0
KASU 111555Z 33010KT M03/M10 A3024 RMK A01 T10251097  RH  059%=      5-min Rain = 0
KASU 111600Z 33010KT M02/M09 A3024 RMK A01 T10221092  RH  059%=      5-min Rain = 0
KASU 111605Z 33013KT M02/M10 A3024 RMK A01 T10231099  RH  057%=      5-min Rain = 0
KASU 111610Z 33012KT M02/M10 A3025 RMK A01 T10221101  RH  056%=      5-min Rain = 0
KASU 111615Z 33013KT M02/M10 A3025 RMK A01 T10211098  RH  056%=      5-min Rain = 0
KASU 111620Z 34011KT M02/M10 A3025 RMK A01 T10191101  RH  054%=      5-min Rain = 0
KASU 111625Z 34011KT M02/M10 A3025 RMK A01 T10171101  RH  054%=      5-min Rain = 0
KASU 111630Z 34010KT M02/M10 A3025 RMK A01 T10171099  RH  054%=      5-min Rain = 0
KASU 111635Z 32011KT M02/M10 A3025 RMK A01 T10171099  RH  054%=      5-min Rain = 0
KASU 111640Z 33012KT M02/M10 A3025 RMK A01 T10161099  RH  054%=      5-min Rain = 0
KASU 111645Z 33011KT M02/M10 A3025 RMK A01 T10151100  RH  053%=      5-min Rain = 0
KASU 111650Z 33010KT M01/M10 A3025 RMK A01 T10141101  RH  052%=      5-min Rain = 0
KASU 111655Z 33010KT M01/M10 A3026 RMK A01 T10111096  RH  053%=      5-min Rain = 0
KASU 111700Z 33012KT M01/M10 A3026 RMK A01 T10091097  RH  052%=      5-min Rain = 0
KASU 111705Z 33012KT M01/M10 A3026 RMK A01 T10081098  RH  051%=      5-min Rain = 0
KASU 111710Z 34010KT M00/M10 A3026 RMK A01 T10041095  RH  051%=      5-min Rain = 0
KASU 111715Z 34010KT M00/M10 A3026 RMK A01 T10021098  RH  049%=      5-min Rain = 0
KASU 111720Z 33010G15KT 00/M10 A3026 RMK A01 T00021095  RH  049%=      5-min Rain = 0
KASU 111725Z 32010KT 00/M10 A3025 RMK A01 T00011096  RH  048%=      5-min Rain = 0
KASU 111730Z 34013KT 00/M10 A3025 RMK A01 T00041097  RH  047%=      5-min Rain = 0
KASU 111735Z 33013G18KT 01/M10 A3025 RMK A01 T00061098  RH  046%=      5-min Rain = 0
KASU 111740Z 33012KT 01/M10 A3025 RMK A01 T00061098  RH  046%=      5-min Rain = 0
KASU 111745Z 34012G17KT 01/M10 A3025 RMK A01 T00091099  RH  045%=      5-min Rain = 0
KASU 111750Z 33013KT 01/M10 A3025 RMK A01 T00081100  RH  045%=      5-min Rain = 0
KASU 111755Z 32012KT 01/M10 A3025 RMK A01 T00061101  RH  045%=      5-min Rain = 0
KASU 111800Z 33012KT 01/M10 A3025 RMK A01 T00071101  RH  045%=      5-min Rain = 0
KASU 111805Z 32011KT 00/M11 A3025 RMK A01 T00041106  RH  044%=      5-min Rain = 0
KASU 111810Z 33010KT 01/M11 A3025 RMK A01 T00051106  RH  044%=      5-min Rain = 0
KASU 111815Z 33009KT 01/M11 A3025 RMK A01 T00051107  RH  043%=      5-min Rain = 0
KASU 111820Z 34011KT 02/M10 A3025 RMK A01 T00151101  RH  042%=      5-min Rain = 0
KASU 111825Z 34011KT 02/M10 A3024 RMK A01 T00201102  RH  040%=      5-min Rain = 0
KASU 111830Z 34010KT 02/M10 A3024 RMK A01 T00241102  RH  039%=      5-min Rain = 0
KASU 111835Z 33014KT 03/M10 A3023 RMK A01 T00281099  RH  039%=      5-min Rain = 0
KASU 111840Z 32011G17KT 03/M10 A3023 RMK A01 T00291098  RH  039%=      5-min Rain = 0
KASU 111845Z 34010KT 04/M10 A3023 RMK A01 T00361098  RH  037%=      5-min Rain = 0
KASU 111850Z 35011KT 04/M10 A3022 RMK A01 T00401101  RH  035%=      5-min Rain = 0
KASU 111855Z 33011G17KT 04/M09 A3022 RMK A01 T00441094  RH  036%=      5-min Rain = 0
KASU 111900Z 32011KT 04/M10 A3022 RMK A01 T00381099  RH  037%=      5-min Rain = 0
KASU 111905Z 33009G16KT 04/M10 A3021 RMK A01 T00401098  RH  036%=      5-min Rain = 0
KASU 111910Z 35011KT 04/M11 A3021 RMK A01 T00381106  RH  035%=      5-min Rain = 0
KASU 111915Z 34011KT 04/M10 A3021 RMK A01 T00421103  RH  034%=      5-min Rain = 0
KASU 111920Z 33009G15KT 04/M10 A3021 RMK A01 T00421104  RH  034%=      5-min Rain = 0
KASU 111925Z 35009G14KT 04/M11 A3021 RMK A01 T00441105  RH  033%=      5-min Rain = 0
KASU 111930Z 32011KT 05/M10 A302 RMK A01 T00471103  RH  033%=      5-min Rain = 0
KASU 111935Z 33011G16KT 05/M10 A302 RMK A01 T00481103  RH  033%=      5-min Rain = 0
KASU 111940Z 32013KT 05/M11 A302 RMK A01 T00481105  RH  032%=      5-min Rain = 0
KASU 111945Z 32011G16KT 05/M10 A302 RMK A01 T00491101  RH  033%=      5-min Rain = 0
KASU 111950Z 33009G14KT 05/M11 A3019 RMK A01 T00481108  RH  032%=      5-min Rain = 0
KASU 111955Z 34011KT 05/M11 A3019 RMK A01 T00521107  RH  031%=      5-min Rain = 0
KASU 112000Z 33011KT 05/M11 A3019 RMK A01 T00491110  RH  031%=      5-min Rain = 0
KASU 112005Z 33009G14KT 05/M11 A3019 RMK A01 T00501108  RH  031%=      5-min Rain = 0
KASU 112010Z 35008KT 05/M11 A3019 RMK A01 T00541112  RH  029%=      5-min Rain = 0
KASU 112015Z 32013G18KT 06/M11 A3019 RMK A01 T00561108  RH  030%=      5-min Rain = 0
KASU 112020Z 33010G16KT 05/M11 A3019 RMK A01 T00511112  RH  030%=      5-min Rain = 0
KASU 112025Z 32012KT 05/M11 A3018 RMK A01 T00521113  RH  030%=      5-min Rain = 0
KASU 112030Z 33010G15KT 04/M12 A3018 RMK A01 T00441119  RH  030%=      5-min Rain = 0
KASU 112035Z 33009G14KT 05/M12 A3018 RMK A01 T00521115  RH  029%=      5-min Rain = 0
KASU 112040Z 32009G15KT 05/M12 A3018 RMK A01 T00511115  RH  029%=      5-min Rain = 0
KASU 112045Z 34007KT 06/M12 A3018 RMK A01 T00561115  RH  028%=      5-min Rain = 0
KASU 112050Z 35009G16KT 06/M12 A3018 RMK A01 T00561118  RH  028%=      5-min Rain = 0
KASU 112055Z 34009G14KT 05/M12 A3018 RMK A01 T00531119  RH  028%=      5-min Rain = 0
KASU 112100Z 33009KT 06/M12 A3018 RMK A01 T00561115  RH  028%=      5-min Rain = 0
KASU 112105Z 32010KT 06/M11 A3018 RMK A01 T00601114  RH  028%=      5-min Rain = 0
KASU 112110Z 33010KT 06/M12 A3018 RMK A01 T00571116  RH  028%=      5-min Rain = 0
KASU 112115Z 33009G15KT 06/M12 A3018 RMK A01 T00561118  RH  028%=      5-min Rain = 0
KASU 112120Z 33009G16KT 06/M12 A3018 RMK A01 T00611115  RH  027%=      5-min Rain = 0
KASU 112125Z 35009G17KT 06/M12 A3017 RMK A01 T00581120  RH  027%=      5-min Rain = 0
KASU 112130Z 34010KT 06/M12 A3017 RMK A01 T00581119  RH  027%=      5-min Rain = 0
KASU 112135Z 33009KT 06/M12 A3017 RMK A01 T00571118  RH  027%=      5-min Rain = 0
KASU 112140Z 35008G13KT 06/M12 A3017 RMK A01 T00561120  RH  027%=      5-min Rain = 0
KASU 112145Z 33012KT 06/M12 A3017 RMK A01 T00591118  RH  027%=      5-min Rain = 0
KASU 112150Z 33009KT 06/M12 A3017 RMK A01 T00621116  RH  027%=      5-min Rain = 0
KASU 112155Z 35008KT 06/M12 A3017 RMK A01 T00621119  RH  026%=      5-min Rain = 0
KASU 112200Z 33011G17KT 07/M12 A3017 RMK A01 T00671116  RH  026%=      5-min Rain = 0
KASU 112205Z 34009KT 07/M12 A3017 RMK A01 T00691120  RH  025%=      5-min Rain = 0
KASU 112210Z 33011KT 07/M12 A3017 RMK A01 T00671118  RH  026%=      5-min Rain = 0
KASU 112215Z 32009G14KT 06/M12 A3017 RMK A01 T00641119  RH  026%=      5-min Rain = 0
KASU 112220Z 34010KT 06/M12 A3017 RMK A01 T00601123  RH  026%=      5-min Rain = 0
KASU 112225Z 34008G14KT 06/M12 A3017 RMK A01 T00591123  RH  026%=      5-min Rain = 0
KASU 112230Z 34009KT 06/M12 A3017 RMK A01 T00601123  RH  026%=      5-min Rain = 0
KASU 112235Z 32008KT 06/M12 A3017 RMK A01 T00611122  RH  026%=      5-min Rain = 0
KASU 112240Z 32009KT 06/M12 A3018 RMK A01 T00621120  RH  026%=      5-min Rain = 0
KASU 112245Z 35006KT 06/M12 A3018 RMK A01 T00611124  RH  026%=      5-min Rain = 0
KASU 112250Z 35008KT 06/M12 A3017 RMK A01 T00581124  RH  026%=      5-min Rain = 0
KASU 112255Z 34010KT 06/M12 A3017 RMK A01 T00571123  RH  026%=      5-min Rain = 0
KASU 112300Z 36006KT 06/M12 A3018 RMK A01 T00581123  RH  026%=      5-min Rain = 0
KASU 112305Z 35007KT 06/M13 A3018 RMK A01 T00581125  RH  026%=      5-min Rain = 0
KASU 112310Z 01005KT 06/M12 A3018 RMK A01 T00581124  RH  026%=      5-min Rain = 0
KASU 112315Z 00006KT 06/M13 A3018 RMK A01 T00551125  RH  026%=      5-min Rain = 0
KASU 112320Z 01005KT 05/M12 A3018 RMK A01 T00521124  RH  027%=      5-min Rain = 0
KASU 112325Z 35005KT 05/M12 A3018 RMK A01 T00521124  RH  027%=      5-min Rain = 0
KASU 112330Z 35006KT 05/M12 A3018 RMK A01 T00521123  RH  027%=      5-min Rain = 0
KASU 112335Z 34007KT 05/M12 A3018 RMK A01 T00521122  RH  027%=      5-min Rain = 0
KASU 112340Z 34008KT 05/M12 A3018 RMK A01 T00521122  RH  028%=      5-min Rain = 0
KASU 112345Z 35007KT 05/M12 A3018 RMK A01 T00511123  RH  027%=      5-min Rain = 0
KASU 112350Z 35006KT 05/M12 A3019 RMK A01 T00501123  RH  028%=      5-min Rain = 0
KASU 112355Z 35006KT 05/M12 A3019 RMK A01 T00501123  RH  028%=      5-min Rain = 0
KASU 120000Z 00005KT 05/M12 A3019 RMK A01 T00501122  RH  028%=      5-min Rain = 0
KASU 120005Z 00005KT 05/M12 A3019 RMK A01 T00491123  RH  028%=      5-min Rain = 0
KASU 120010Z 00004KT 05/M12 A3019 RMK A01 T00491122  RH  028%=      5-min Rain = 0
KASU 120015Z 36005KT 05/M12 A3019 RMK A01 T00481122  RH  029%=      5-min Rain = 0
KASU 120020Z 01005KT 05/M12 A3019 RMK A01 T00471121  RH  029%=      5-min Rain = 0
KASU 120025Z 02003KT 05/M12 A302 RMK A01 T00461121  RH  029%=      5-min Rain = 0
KASU 120030Z 02003KT 04/M12 A302 RMK A01 T00441121  RH  029%=      5-min Rain = 0
KASU 120035Z 03003KT 04/M12 A302 RMK A01 T00421121  RH  030%=      5-min Rain = 0
KASU 120040Z 03002KT 04/M12 A302 RMK A01 T00411121  RH  030%=      5-min Rain = 0
KASU 120045Z 04003KT 04/M12 A302 RMK A01 T00391120  RH  031%=      5-min Rain = 0
KASU 120050Z 05003KT 04/M12 A3021 RMK A01 T00351122  RH  031%=      5-min Rain = 0
KASU 120055Z 05003KT 03/M12 A3021 RMK A01 T00311122  RH  032%=      5-min Rain = 0
KASU 120100Z 04003KT 03/M12 A3021 RMK A01 T00311121  RH  032%=      5-min Rain = 0
KASU 120105Z 05005KT 03/M12 A3021 RMK A01 T00271122  RH  033%=      5-min Rain = 0
KASU 120110Z 06004KT 02/M12 A3021 RMK A01 T00231123  RH  034%=      5-min Rain = 0
KASU 120115Z 06004KT 02/M12 A3021 RMK A01 T00211123  RH  034%=      5-min Rain = 0
KASU 120120Z 05003KT 02/M12 A3021 RMK A01 T00221121  RH  034%=      5-min Rain = 0
KASU 120125Z 05003KT 02/M12 A3021 RMK A01 T00241120  RH  034%=      5-min Rain = 0
KASU 120130Z 06003KT 02/M12 A3021 RMK A01 T00211122  RH  034%=      5-min Rain = 0
KASU 120135Z 06003KT 02/M12 A3022 RMK A01 T00171123  RH  035%=      5-min Rain = 0
KASU 120140Z 05002KT 02/M12 A3022 RMK A01 T00191120  RH  035%=      5-min Rain = 0
KASU 120145Z 04002KT 02/M12 A3022 RMK A01 T00211119  RH  035%=      5-min Rain = 0
KASU 120150Z 05003KT 02/M12 A3022 RMK A01 T00211119  RH  035%=      5-min Rain = 0
KASU 120155Z 05003KT 02/M12 A3022 RMK A01 T00191119  RH  036%=      5-min Rain = 0
KASU 120200Z 05003KT 02/M12 A3023 RMK A01 T00191119  RH  036%=      5-min Rain = 0
KASU 120205Z 06004KT 02/M12 A3023 RMK A01 T00181120  RH  036%=      5-min Rain = 0
KASU 120210Z 06004KT 01/M12 A3023 RMK A01 T00131122  RH  036%=      5-min Rain = 0
KASU 120215Z 04003KT 01/M12 A3024 RMK A01 T00131120  RH  037%=      5-min Rain = 0
KASU 120220Z 04003KT 02/M12 A3024 RMK A01 T00151120  RH  037%=      5-min Rain = 0
KASU 120225Z 04003KT 01/M12 A3024 RMK A01 T00131120  RH  037%=      5-min Rain = 0
KASU 120230Z 03003KT 01/M12 A3025 RMK A01 T00111121  RH  037%=      5-min Rain = 0
KASU 120235Z 03003KT 01/M12 A3025 RMK A01 T00101120  RH  038%=      5-min Rain = 0
KASU 120240Z 03003KT 01/M12 A3025 RMK A01 T00071121  RH  038%=      5-min Rain = 0
KASU 120245Z 03004KT 01/M12 A3025 RMK A01 T00081119  RH  039%=      5-min Rain = 0
KASU 120250Z 03004KT 01/M12 A3025 RMK A01 T00081120  RH  038%=      5-min Rain = 0
KASU 120255Z 04005KT 01/M12 A3025 RMK A01 T00051121  RH  039%=      5-min Rain = 0
KASU 120300Z 04005KT 01/M12 A3025 RMK A01 T00051120  RH  039%=      5-min Rain = 0
KASU 120305Z 04005KT 01/M12 A3025 RMK A01 T00061120  RH  039%=      5-min Rain = 0
KASU 120310Z 05005KT 00/M12 A3025 RMK A01 T00041121  RH  039%=      5-min Rain = 0
KASU 120315Z 05005KT 00/12 A3025 RMK A01 T00000-122  RH  040%=      5-min Rain = 0
KASU 120320Z 06005KT M00/M12 A3025 RMK A01 T10021123  RH  040%=      5-min Rain = 0
KASU 120325Z 05006KT M00/M12 A3025 RMK A01 T10021122  RH  041%=      5-min Rain = 0
KASU 120330Z 06005KT M00/M12 A3025 RMK A01 T10021122  RH  041%=      5-min Rain = 0
KASU 120335Z 06005KT M00/M12 A3025 RMK A01 T10031121  RH  041%=      5-min Rain = 0
KASU 120340Z 06004KT M00/M12 A3025 RMK A01 T10031121  RH  041%=      5-min Rain = 0
KASU 120345Z 06004KT M00/M12 A3026 RMK A01 T10031121  RH  041%=      5-min Rain = 0
KASU 120350Z 06005KT M00/M12 A3025 RMK A01 T10031120  RH  041%=      5-min Rain = 0
KASU 120355Z 06005KT M00/M12 A3025 RMK A01 T10041121  RH  041%=      5-min Rain = 0
KASU 120400Z 06005KT M00/M12 A3025 RMK A01 T10041120  RH  041%=      5-min Rain = 0
KASU 120405Z 06005KT M00/M12 A3025 RMK A01 T10031120  RH  042%=      5-min Rain = 0
KASU 120410Z 07005KT M00/M12 A3026 RMK A01 T10031120  RH  041%=      5-min Rain = 0
KASU 120415Z 07006KT M00/M12 A3026 RMK A01 T10021120  RH  041%=      5-min Rain = 0
KASU 120420Z 07006KT M00/M12 A3026 RMK A01 T10041121  RH  041%=      5-min Rain = 0
KASU 120425Z 07006KT M00/M12 A3026 RMK A01 T10031120  RH  041%=      5-min Rain = 0
KASU 120430Z 07005KT M01/M12 A3026 RMK A01 T10051122  RH  041%=      5-min Rain = 0
KASU 120435Z 07005KT M01/M12 A3027 RMK A01 T10061122  RH  042%=      5-min Rain = 0
KASU 120440Z 07006KT M01/M12 A3027 RMK A01 T10081122  RH  042%=      5-min Rain = 0
KASU 120445Z 07005KT M01/M12 A3027 RMK A01 T10081122  RH  042%=      5-min Rain = 0
KASU 120450Z 07005KT M01/M13 A3027 RMK A01 T10121125  RH  043%=      5-min Rain = 0
KASU 120455Z 07005KT M01/M13 A3027 RMK A01 T10141126  RH  043%=      5-min Rain = 0
KASU 120500Z 07005KT M02/M13 A3027 RMK A01 T10161126  RH  044%=      5-min Rain = 0
KASU 120505Z 06004KT M01/M12 A3027 RMK A01 T10141122  RH  044%=      5-min Rain = 0
KASU 120510Z 07004KT M02/M12 A3027 RMK A01 T10151123  RH  044%=      5-min Rain = 0
KASU 120515Z 07003KT M02/M12 A3028 RMK A01 T10151123  RH  044%=      5-min Rain = 0
KASU 120520Z 08004KT M02/M12 A3028 RMK A01 T10161124  RH  044%=      5-min Rain = 0
KASU 120525Z 08005KT M02/M13 A3028 RMK A01 T10191125  RH  045%=      5-min Rain = 0
KASU 120530Z 07005KT M02/M12 A3028 RMK A01 T10191123  RH  045%=      5-min Rain = 0
KASU 120535Z 07004KT M02/M12 A3028 RMK A01 T10161121  RH  045%=      5-min Rain = 0
KASU 120540Z 06004KT M01/M12 A3028 RMK A01 T10121120  RH  044%=      5-min Rain = 0
KASU 120545Z 06004KT M01/M12 A3028 RMK A01 T10101121  RH  044%=      5-min Rain = 0
KASU 120550Z 06004KT M01/M12 A3028 RMK A01 T10121121  RH  044%=      5-min Rain = 0
KASU 120555Z 05004KT M01/M12 A3028 RMK A01 T10121121  RH  044%=      5-min Rain = 0

Page generated in 0.01 seconds.